sensor_id;sensor_type;location;lat;lon;timestamp;P1;durP1;ratioP1;P2;durP2;ratioP2
42886;SDS011;29032;56.028;92.904;2024-02-16T00:01:01;12.93;;;4.97;;
42886;SDS011;29032;56.028;92.904;2024-02-16T00:06:04;13.33;;;5.10;;
42886;SDS011;29032;56.028;92.904;2024-02-16T00:11:08;17.57;;;6.23;;
42886;SDS011;29032;56.028;92.904;2024-02-16T00:16:10;16.10;;;4.87;;
42886;SDS011;29032;56.028;92.904;2024-02-16T00:21:12;4.80;;;3.23;;
42886;SDS011;29032;56.028;92.904;2024-02-16T00:26:15;6.53;;;3.30;;
42886;SDS011;29032;56.028;92.904;2024-02-16T00:31:17;6.63;;;3.63;;
42886;SDS011;29032;56.028;92.904;2024-02-16T00:36:20;8.20;;;3.43;;
42886;SDS011;29032;56.028;92.904;2024-02-16T00:41:23;9.10;;;4.23;;
42886;SDS011;29032;56.028;92.904;2024-02-16T00:46:25;12.83;;;5.10;;
42886;SDS011;29032;56.028;92.904;2024-02-16T00:51:28;11.70;;;3.67;;
42886;SDS011;29032;56.028;92.904;2024-02-16T00:56:31;13.40;;;4.67;;
42886;SDS011;29032;56.028;92.904;2024-02-16T01:01:33;7.80;;;3.37;;
42886;SDS011;29032;56.028;92.904;2024-02-16T01:06:36;8.27;;;4.13;;
42886;SDS011;29032;56.028;92.904;2024-02-16T01:11:39;8.33;;;4.10;;
42886;SDS011;29032;56.028;92.904;2024-02-16T01:16:42;14.90;;;4.73;;
42886;SDS011;29032;56.028;92.904;2024-02-16T01:21:45;6.30;;;3.90;;
42886;SDS011;29032;56.028;92.904;2024-02-16T01:26:48;10.43;;;4.73;;
42886;SDS011;29032;56.028;92.904;2024-02-16T01:31:50;11.70;;;4.60;;
42886;SDS011;29032;56.028;92.904;2024-02-16T01:36:52;5.07;;;2.70;;
42886;SDS011;29032;56.028;92.904;2024-02-16T01:41:56;11.60;;;3.87;;
42886;SDS011;29032;56.028;92.904;2024-02-16T01:46:58;8.87;;;4.73;;
42886;SDS011;29032;56.028;92.904;2024-02-16T01:52:01;9.20;;;4.30;;
42886;SDS011;29032;56.028;92.904;2024-02-16T01:57:04;7.80;;;4.63;;
42886;SDS011;29032;56.028;92.904;2024-02-16T02:02:07;12.10;;;4.20;;
42886;SDS011;29032;56.028;92.904;2024-02-16T02:07:13;7.10;;;3.63;;
42886;SDS011;29032;56.028;92.904;2024-02-16T02:17:19;6.57;;;3.20;;
42886;SDS011;29032;56.028;92.904;2024-02-16T02:22:22;8.17;;;3.30;;
42886;SDS011;29032;56.028;92.904;2024-02-16T02:27:25;9.90;;;4.03;;
42886;SDS011;29032;56.028;92.904;2024-02-16T02:32:27;17.93;;;7.23;;
42886;SDS011;29032;56.028;92.904;2024-02-16T02:37:31;27.93;;;8.73;;
42886;SDS011;29032;56.028;92.904;2024-02-16T02:42:33;17.93;;;6.03;;
42886;SDS011;29032;56.028;92.904;2024-02-16T02:47:35;21.90;;;6.90;;
42886;SDS011;29032;56.028;92.904;2024-02-16T02:52:38;23.93;;;5.30;;
42886;SDS011;29032;56.028;92.904;2024-02-16T02:57:41;10.77;;;4.97;;
42886;SDS011;29032;56.028;92.904;2024-02-16T03:02:43;9.83;;;5.33;;
42886;SDS011;29032;56.028;92.904;2024-02-16T03:07:46;11.43;;;5.67;;
42886;SDS011;29032;56.028;92.904;2024-02-16T03:12:49;11.17;;;3.57;;
42886;SDS011;29032;56.028;92.904;2024-02-16T03:17:51;10.93;;;4.13;;
42886;SDS011;29032;56.028;92.904;2024-02-16T03:22:55;7.33;;;3.57;;
42886;SDS011;29032;56.028;92.904;2024-02-16T03:27:57;8.30;;;3.53;;
42886;SDS011;29032;56.028;92.904;2024-02-16T03:32:59;10.10;;;4.73;;
42886;SDS011;29032;56.028;92.904;2024-02-16T03:38:03;14.33;;;4.43;;
42886;SDS011;29032;56.028;92.904;2024-02-16T03:43:05;10.33;;;4.53;;
42886;SDS011;29032;56.028;92.904;2024-02-16T03:48:07;8.10;;;4.80;;
42886;SDS011;29032;56.028;92.904;2024-02-16T03:53:12;12.73;;;5.10;;
42886;SDS011;29032;56.028;92.904;2024-02-16T03:58:14;12.33;;;4.73;;
42886;SDS011;29032;56.028;92.904;2024-02-16T04:03:16;9.07;;;4.67;;
42886;SDS011;29032;56.028;92.904;2024-02-16T04:08:20;16.87;;;4.97;;
42886;SDS011;29032;56.028;92.904;2024-02-16T04:13:22;12.37;;;4.77;;
42886;SDS011;29032;56.028;92.904;2024-02-16T04:18:24;6.83;;;3.80;;
42886;SDS011;29032;56.028;92.904;2024-02-16T04:23:28;9.67;;;4.57;;
42886;SDS011;29032;56.028;92.904;2024-02-16T04:28:30;8.07;;;3.47;;
42886;SDS011;29032;56.028;92.904;2024-02-16T04:33:32;8.20;;;3.73;;
42886;SDS011;29032;56.028;92.904;2024-02-16T04:38:36;6.90;;;3.20;;
42886;SDS011;29032;56.028;92.904;2024-02-16T04:43:38;9.33;;;4.70;;
42886;SDS011;29032;56.028;92.904;2024-02-16T04:48:40;6.23;;;3.80;;
42886;SDS011;29032;56.028;92.904;2024-02-16T04:53:44;6.07;;;3.13;;
42886;SDS011;29032;56.028;92.904;2024-02-16T04:58:46;7.77;;;3.50;;
42886;SDS011;29032;56.028;92.904;2024-02-16T05:03:48;11.83;;;4.57;;
42886;SDS011;29032;56.028;92.904;2024-02-16T05:08:52;9.70;;;3.77;;
42886;SDS011;29032;56.028;92.904;2024-02-16T05:13:54;10.37;;;4.20;;
42886;SDS011;29032;56.028;92.904;2024-02-16T05:18:56;8.80;;;3.37;;
42886;SDS011;29032;56.028;92.904;2024-02-16T05:24:00;6.43;;;3.40;;
42886;SDS011;29032;56.028;92.904;2024-02-16T05:29:02;7.63;;;3.23;;
42886;SDS011;29032;56.028;92.904;2024-02-16T05:34:04;4.97;;;3.00;;
42886;SDS011;29032;56.028;92.904;2024-02-16T05:39:07;8.87;;;3.70;;
42886;SDS011;29032;56.028;92.904;2024-02-16T05:44:10;6.50;;;3.40;;
42886;SDS011;29032;56.028;92.904;2024-02-16T05:49:12;6.27;;;2.80;;
42886;SDS011;29032;56.028;92.904;2024-02-16T05:54:16;7.40;;;3.00;;
42886;SDS011;29032;56.028;92.904;2024-02-16T05:59:18;6.97;;;4.03;;
42886;SDS011;29032;56.028;92.904;2024-02-16T06:04:20;7.93;;;3.50;;
42886;SDS011;29032;56.028;92.904;2024-02-16T06:09:23;8.47;;;3.67;;
42886;SDS011;29032;56.028;92.904;2024-02-16T06:14:26;4.87;;;2.67;;
42886;SDS011;29032;56.028;92.904;2024-02-16T06:19:28;5.83;;;2.87;;
42886;SDS011;29032;56.028;92.904;2024-02-16T06:29:52;10.07;;;2.37;;
42886;SDS011;29032;56.028;92.904;2024-02-16T06:34:54;6.73;;;3.20;;
42886;SDS011;29032;56.028;92.904;2024-02-16T06:39:58;8.73;;;3.80;;
42886;SDS011;29032;56.028;92.904;2024-02-16T06:45:00;4.60;;;2.50;;
42886;SDS011;29032;56.028;92.904;2024-02-16T06:50:02;7.53;;;3.20;;
42886;SDS011;29032;56.028;92.904;2024-02-16T06:55:07;9.00;;;3.90;;
42886;SDS011;29032;56.028;92.904;2024-02-16T07:00:09;11.23;;;4.30;;
42886;SDS011;29032;56.028;92.904;2024-02-16T07:05:12;8.13;;;3.93;;
42886;SDS011;29032;56.028;92.904;2024-02-16T07:10:16;4.07;;;2.27;;
42886;SDS011;29032;56.028;92.904;2024-02-16T07:15:18;6.97;;;3.43;;
42886;SDS011;29032;56.028;92.904;2024-02-16T07:20:21;7.07;;;3.10;;
42886;SDS011;29032;56.028;92.904;2024-02-16T07:25:24;7.10;;;2.80;;
42886;SDS011;29032;56.028;92.904;2024-02-16T07:30:26;9.53;;;3.73;;
42886;SDS011;29032;56.028;92.904;2024-02-16T07:35:28;9.27;;;3.57;;
42886;SDS011;29032;56.028;92.904;2024-02-16T07:40:32;8.97;;;3.53;;
42886;SDS011;29032;56.028;92.904;2024-02-16T07:45:34;5.03;;;2.10;;
42886;SDS011;29032;56.028;92.904;2024-02-16T07:50:36;6.73;;;2.63;;
42886;SDS011;29032;56.028;92.904;2024-02-16T07:55:40;5.93;;;3.47;;
42886;SDS011;29032;56.028;92.904;2024-02-16T08:00:42;7.13;;;2.83;;
42886;SDS011;29032;56.028;92.904;2024-02-16T08:05:44;5.73;;;3.67;;
42886;SDS011;29032;56.028;92.904;2024-02-16T08:10:48;5.73;;;2.47;;
42886;SDS011;29032;56.028;92.904;2024-02-16T08:15:50;5.63;;;2.60;;
42886;SDS011;29032;56.028;92.904;2024-02-16T08:21:11;7.53;;;2.90;;
42886;SDS011;29032;56.028;92.904;2024-02-16T08:26:14;4.83;;;2.60;;
42886;SDS011;29032;56.028;92.904;2024-02-16T08:31:17;5.20;;;2.90;;
42886;SDS011;29032;56.028;92.904;2024-02-16T08:36:20;6.77;;;3.23;;
42886;SDS011;29032;56.028;92.904;2024-02-16T08:41:23;11.57;;;4.23;;
42886;SDS011;29032;56.028;92.904;2024-02-16T08:46:25;10.33;;;3.97;;
42886;SDS011;29032;56.028;92.904;2024-02-16T08:51:46;10.77;;;4.23;;
42886;SDS011;29032;56.028;92.904;2024-02-16T08:56:50;7.30;;;4.10;;
42886;SDS011;29032;56.028;92.904;2024-02-16T09:01:52;8.90;;;3.33;;
42886;SDS011;29032;56.028;92.904;2024-02-16T09:06:54;11.00;;;3.27;;
42886;SDS011;29032;56.028;92.904;2024-02-16T09:11:58;10.53;;;4.30;;
42886;SDS011;29032;56.028;92.904;2024-02-16T09:17:00;7.43;;;3.57;;
42886;SDS011;29032;56.028;92.904;2024-02-16T09:22:02;7.17;;;4.07;;
42886;SDS011;29032;56.028;92.904;2024-02-16T09:27:06;6.10;;;2.60;;
42886;SDS011;29032;56.028;92.904;2024-02-16T09:32:08;8.63;;;4.67;;
42886;SDS011;29032;56.028;92.904;2024-02-16T09:37:11;11.23;;;5.03;;
42886;SDS011;29032;56.028;92.904;2024-02-16T09:42:14;8.30;;;3.97;;
42886;SDS011;29032;56.028;92.904;2024-02-16T09:47:17;3.97;;;2.83;;
42886;SDS011;29032;56.028;92.904;2024-02-16T09:52:21;17.97;;;6.27;;
42886;SDS011;29032;56.028;92.904;2024-02-16T09:57:26;12.47;;;4.23;;
42886;SDS011;29032;56.028;92.904;2024-02-16T10:02:28;8.43;;;3.53;;
42886;SDS011;29032;56.028;92.904;2024-02-16T10:07:40;8.40;;;4.57;;
42886;SDS011;29032;56.028;92.904;2024-02-16T10:12:44;23.13;;;7.70;;
42886;SDS011;29032;56.028;92.904;2024-02-16T10:17:56;10.70;;;4.30;;
42886;SDS011;29032;56.028;92.904;2024-02-16T10:23:02;15.37;;;5.87;;
42886;SDS011;29032;56.028;92.904;2024-02-16T10:28:08;7.87;;;4.10;;
42886;SDS011;29032;56.028;92.904;2024-02-16T10:33:11;11.90;;;4.78;;
42886;SDS011;29032;56.028;92.904;2024-02-16T10:38:14;8.80;;;3.80;;
42886;SDS011;29032;56.028;92.904;2024-02-16T10:43:18;21.17;;;6.43;;
42886;SDS011;29032;56.028;92.904;2024-02-16T10:48:21;14.93;;;5.97;;
42886;SDS011;29032;56.028;92.904;2024-02-16T10:53:41;19.73;;;6.87;;
42886;SDS011;29032;56.028;92.904;2024-02-16T10:58:48;21.50;;;7.20;;
42886;SDS011;29032;56.028;92.904;2024-02-16T11:03:59;18.07;;;6.73;;
42886;SDS011;29032;56.028;92.904;2024-02-16T11:09:02;22.43;;;5.37;;
42886;SDS011;29032;56.028;92.904;2024-02-16T11:14:14;16.37;;;6.23;;
42886;SDS011;29032;56.028;92.904;2024-02-16T11:19:16;8.70;;;5.10;;
42886;SDS011;29032;56.028;92.904;2024-02-16T11:24:42;10.13;;;5.13;;
42886;SDS011;29032;56.028;92.904;2024-02-16T11:29:47;15.87;;;5.50;;
42886;SDS011;29032;56.028;92.904;2024-02-16T11:34:50;12.23;;;5.67;;
42886;SDS011;29032;56.028;92.904;2024-02-16T11:39:55;18.10;;;7.13;;
42886;SDS011;29032;56.028;92.904;2024-02-16T11:44:58;15.17;;;6.30;;
42886;SDS011;29032;56.028;92.904;2024-02-16T11:50:01;17.63;;;6.27;;
42886;SDS011;29032;56.028;92.904;2024-02-16T11:55:07;13.73;;;5.87;;
42886;SDS011;29032;56.028;92.904;2024-02-16T12:00:12;14.33;;;6.00;;
42886;SDS011;29032;56.028;92.904;2024-02-16T12:05:14;21.80;;;6.70;;
42886;SDS011;29032;56.028;92.904;2024-02-16T12:10:17;19.30;;;6.07;;
42886;SDS011;29032;56.028;92.904;2024-02-16T12:15:21;17.73;;;6.00;;
42886;SDS011;29032;56.028;92.904;2024-02-16T12:20:23;23.60;;;7.47;;
42886;SDS011;29032;56.028;92.904;2024-02-16T12:25:25;16.53;;;6.00;;
42886;SDS011;29032;56.028;92.904;2024-02-16T12:30:29;11.30;;;4.53;;
42886;SDS011;29032;56.028;92.904;2024-02-16T12:40:35;11.70;;;4.97;;
42886;SDS011;29032;56.028;92.904;2024-02-16T12:45:39;8.70;;;4.40;;
42886;SDS011;29032;56.028;92.904;2024-02-16T12:50:59;18.03;;;5.60;;
42886;SDS011;29032;56.028;92.904;2024-02-16T12:56:01;17.97;;;6.67;;
42886;SDS011;29032;56.028;92.904;2024-02-16T13:01:05;14.93;;;6.27;;
42886;SDS011;29032;56.028;92.904;2024-02-16T13:06:07;10.03;;;4.50;;
42886;SDS011;29032;56.028;92.904;2024-02-16T13:11:10;8.97;;;3.63;;
42886;SDS011;29032;56.028;92.904;2024-02-16T13:16:13;6.90;;;3.50;;
42886;SDS011;29032;56.028;92.904;2024-02-16T13:21:16;10.13;;;4.30;;
42886;SDS011;29032;56.028;92.904;2024-02-16T13:26:18;17.77;;;7.43;;
42886;SDS011;29032;56.028;92.904;2024-02-16T13:31:21;19.63;;;7.53;;
42886;SDS011;29032;56.028;92.904;2024-02-16T13:36:24;21.73;;;6.70;;
42886;SDS011;29032;56.028;92.904;2024-02-16T13:41:27;18.07;;;7.77;;
42886;SDS011;29032;56.028;92.904;2024-02-16T13:46:31;21.87;;;8.20;;
42886;SDS011;29032;56.028;92.904;2024-02-16T13:56:53;20.33;;;6.07;;
42886;SDS011;29032;56.028;92.904;2024-02-16T14:01:57;24.47;;;7.50;;
42886;SDS011;29032;56.028;92.904;2024-02-16T14:06:59;24.63;;;9.27;;
42886;SDS011;29032;56.028;92.904;2024-02-16T14:12:01;19.43;;;7.10;;
42886;SDS011;29032;56.028;92.904;2024-02-16T14:17:23;26.50;;;7.93;;
42886;SDS011;29032;56.028;92.904;2024-02-16T14:22:26;34.23;;;9.97;;
42886;SDS011;29032;56.028;92.904;2024-02-16T14:27:28;35.97;;;10.93;;
42886;SDS011;29032;56.028;92.904;2024-02-16T14:32:32;27.13;;;9.17;;
42886;SDS011;29032;56.028;92.904;2024-02-16T14:37:34;20.60;;;7.60;;
42886;SDS011;29032;56.028;92.904;2024-02-16T14:42:36;19.17;;;7.80;;
42886;SDS011;29032;56.028;92.904;2024-02-16T14:47:41;13.70;;;6.23;;
42886;SDS011;29032;56.028;92.904;2024-02-16T14:52:43;28.97;;;9.37;;
42886;SDS011;29032;56.028;92.904;2024-02-16T14:57:46;24.27;;;8.77;;
42886;SDS011;29032;56.028;92.904;2024-02-16T15:02:49;12.27;;;6.20;;
42886;SDS011;29032;56.028;92.904;2024-02-16T15:07:52;16.23;;;6.43;;
42886;SDS011;29032;56.028;92.904;2024-02-16T15:12:54;28.90;;;9.50;;
42886;SDS011;29032;56.028;92.904;2024-02-16T15:17:57;35.10;;;9.63;;
42886;SDS011;29032;56.028;92.904;2024-02-16T15:23:00;31.30;;;10.83;;
42886;SDS011;29032;56.028;92.904;2024-02-16T15:28:02;31.37;;;8.17;;
42886;SDS011;29032;56.028;92.904;2024-02-16T15:33:06;27.67;;;9.30;;
42886;SDS011;29032;56.028;92.904;2024-02-16T15:38:08;18.70;;;6.90;;
42886;SDS011;29032;56.028;92.904;2024-02-16T15:43:10;17.00;;;7.43;;
42886;SDS011;29032;56.028;92.904;2024-02-16T15:48:14;28.67;;;8.63;;
42886;SDS011;29032;56.028;92.904;2024-02-16T15:53:16;23.27;;;9.03;;
42886;SDS011;29032;56.028;92.904;2024-02-16T15:58:18;15.73;;;5.80;;
42886;SDS011;29032;56.028;92.904;2024-02-16T16:03:21;10.83;;;4.77;;
42886;SDS011;29032;56.028;92.904;2024-02-16T16:08:24;10.93;;;4.37;;
42886;SDS011;29032;56.028;92.904;2024-02-16T16:13:26;8.67;;;4.63;;
42886;SDS011;29032;56.028;92.904;2024-02-16T16:18:29;10.30;;;4.40;;
42886;SDS011;29032;56.028;92.904;2024-02-16T16:23:32;14.33;;;4.80;;
42886;SDS011;29032;56.028;92.904;2024-02-16T16:28:34;20.17;;;5.93;;
42886;SDS011;29032;56.028;92.904;2024-02-16T16:33:38;18.37;;;7.17;;
42886;SDS011;29032;56.028;92.904;2024-02-16T16:38:40;18.07;;;6.87;;
42886;SDS011;29032;56.028;92.904;2024-02-16T16:43:42;19.70;;;6.87;;
42886;SDS011;29032;56.028;92.904;2024-02-16T16:48:46;27.93;;;7.73;;
42886;SDS011;29032;56.028;92.904;2024-02-16T16:53:48;18.03;;;5.97;;
42886;SDS011;29032;56.028;92.904;2024-02-16T16:59:08;17.87;;;6.83;;
42886;SDS011;29032;56.028;92.904;2024-02-16T17:04:12;47.53;;;11.70;;
42886;SDS011;29032;56.028;92.904;2024-02-16T17:09:14;33.53;;;11.97;;
42886;SDS011;29032;56.028;92.904;2024-02-16T17:14:16;22.27;;;9.13;;
42886;SDS011;29032;56.028;92.904;2024-02-16T17:19:20;18.73;;;6.33;;
42886;SDS011;29032;56.028;92.904;2024-02-16T17:24:22;40.30;;;10.60;;
42886;SDS011;29032;56.028;92.904;2024-02-16T17:29:24;32.47;;;9.70;;
42886;SDS011;29032;56.028;92.904;2024-02-16T17:34:28;29.47;;;9.77;;
42886;SDS011;29032;56.028;92.904;2024-02-16T17:39:30;25.53;;;9.30;;
42886;SDS011;29032;56.028;92.904;2024-02-16T17:44:32;17.47;;;7.23;;
42886;SDS011;29032;56.028;92.904;2024-02-16T17:49:36;18.37;;;8.13;;
42886;SDS011;29032;56.028;92.904;2024-02-16T17:54:38;21.73;;;8.63;;
42886;SDS011;29032;56.028;92.904;2024-02-16T17:59:40;16.47;;;6.17;;
42886;SDS011;29032;56.028;92.904;2024-02-16T18:04:44;22.30;;;8.10;;
42886;SDS011;29032;56.028;92.904;2024-02-16T18:09:46;18.23;;;6.90;;
42886;SDS011;29032;56.028;92.904;2024-02-16T18:14:48;15.53;;;6.00;;
42886;SDS011;29032;56.028;92.904;2024-02-16T18:19:52;18.67;;;7.03;;
42886;SDS011;29032;56.028;92.904;2024-02-16T18:24:54;15.30;;;5.83;;
42886;SDS011;29032;56.028;92.904;2024-02-16T18:29:56;13.80;;;6.60;;
42886;SDS011;29032;56.028;92.904;2024-02-16T18:35:00;11.93;;;5.13;;
42886;SDS011;29032;56.028;92.904;2024-02-16T18:40:02;14.03;;;5.17;;
42886;SDS011;29032;56.028;92.904;2024-02-16T18:45:06;19.00;;;7.07;;
42886;SDS011;29032;56.028;92.904;2024-02-16T18:50:10;16.67;;;6.60;;
42886;SDS011;29032;56.028;92.904;2024-02-16T18:55:12;18.37;;;5.60;;
42886;SDS011;29032;56.028;92.904;2024-02-16T19:00:14;12.23;;;4.73;;
42886;SDS011;29032;56.028;92.904;2024-02-16T19:05:18;12.30;;;5.00;;
42886;SDS011;29032;56.028;92.904;2024-02-16T19:10:20;15.53;;;5.20;;
42886;SDS011;29032;56.028;92.904;2024-02-16T19:15:23;10.40;;;3.60;;
42886;SDS011;29032;56.028;92.904;2024-02-16T19:20:26;8.53;;;3.93;;
42886;SDS011;29032;56.028;92.904;2024-02-16T19:25:28;11.03;;;4.57;;
42886;SDS011;29032;56.028;92.904;2024-02-16T19:30:30;10.07;;;3.30;;
42886;SDS011;29032;56.028;92.904;2024-02-16T19:35:34;13.40;;;6.33;;
42886;SDS011;29032;56.028;92.904;2024-02-16T19:40:36;13.27;;;4.77;;
42886;SDS011;29032;56.028;92.904;2024-02-16T19:45:57;16.27;;;5.37;;
42886;SDS011;29032;56.028;92.904;2024-02-16T19:51:01;14.00;;;5.47;;
42886;SDS011;29032;56.028;92.904;2024-02-16T19:56:03;10.63;;;4.00;;
42886;SDS011;29032;56.028;92.904;2024-02-16T20:01:06;8.80;;;4.03;;
42886;SDS011;29032;56.028;92.904;2024-02-16T20:06:09;10.50;;;4.07;;
42886;SDS011;29032;56.028;92.904;2024-02-16T20:11:11;11.83;;;4.43;;
42886;SDS011;29032;56.028;92.904;2024-02-16T20:16:13;17.37;;;4.67;;
42886;SDS011;29032;56.028;92.904;2024-02-16T20:21:17;11.17;;;4.67;;
42886;SDS011;29032;56.028;92.904;2024-02-16T20:26:23;5.83;;;3.60;;
42886;SDS011;29032;56.028;92.904;2024-02-16T20:31:25;11.00;;;4.78;;
42886;SDS011;29032;56.028;92.904;2024-02-16T20:36:29;9.87;;;4.10;;
42886;SDS011;29032;56.028;92.904;2024-02-16T20:41:31;7.33;;;4.20;;
42886;SDS011;29032;56.028;92.904;2024-02-16T20:46:33;7.17;;;3.73;;
42886;SDS011;29032;56.028;92.904;2024-02-16T20:51:36;10.23;;;4.73;;
42886;SDS011;29032;56.028;92.904;2024-02-16T20:56:39;12.63;;;3.93;;
42886;SDS011;29032;56.028;92.904;2024-02-16T21:01:42;7.60;;;4.07;;
42886;SDS011;29032;56.028;92.904;2024-02-16T21:06:46;12.67;;;4.83;;
42886;SDS011;29032;56.028;92.904;2024-02-16T21:11:48;13.33;;;5.10;;
42886;SDS011;29032;56.028;92.904;2024-02-16T21:16:50;4.20;;;2.93;;
42886;SDS011;29032;56.028;92.904;2024-02-16T21:21:54;5.60;;;3.83;;
42886;SDS011;29032;56.028;92.904;2024-02-16T21:26:56;10.27;;;4.73;;
42886;SDS011;29032;56.028;92.904;2024-02-16T21:31:58;10.50;;;3.70;;
42886;SDS011;29032;56.028;92.904;2024-02-16T21:37:02;8.63;;;3.27;;
42886;SDS011;29032;56.028;92.904;2024-02-16T21:42:04;12.67;;;4.63;;
42886;SDS011;29032;56.028;92.904;2024-02-16T21:47:07;9.40;;;4.33;;
42886;SDS011;29032;56.028;92.904;2024-02-16T21:52:11;8.97;;;4.07;;
42886;SDS011;29032;56.028;92.904;2024-02-16T21:57:13;5.43;;;2.60;;
42886;SDS011;29032;56.028;92.904;2024-02-16T22:02:15;10.37;;;3.47;;
42886;SDS011;29032;56.028;92.904;2024-02-16T22:07:18;10.97;;;5.50;;
42886;SDS011;29032;56.028;92.904;2024-02-16T22:12:21;9.23;;;3.97;;
42886;SDS011;29032;56.028;92.904;2024-02-16T22:17:23;4.27;;;3.03;;
42886;SDS011;29032;56.028;92.904;2024-02-16T22:22:26;6.03;;;2.70;;
42886;SDS011;29032;56.028;92.904;2024-02-16T22:27:28;5.20;;;3.50;;
42886;SDS011;29032;56.028;92.904;2024-02-16T22:32:31;5.03;;;2.93;;
42886;SDS011;29032;56.028;92.904;2024-02-16T22:37:34;5.47;;;4.10;;
42886;SDS011;29032;56.028;92.904;2024-02-16T22:42:36;11.93;;;3.73;;
42886;SDS011;29032;56.028;92.904;2024-02-16T22:53:00;8.10;;;3.60;;
42886;SDS011;29032;56.028;92.904;2024-02-16T22:58:03;6.43;;;3.50;;
42886;SDS011;29032;56.028;92.904;2024-02-16T23:03:06;7.43;;;3.20;;
42886;SDS011;29032;56.028;92.904;2024-02-16T23:08:10;21.40;;;4.67;;
42886;SDS011;29032;56.028;92.904;2024-02-16T23:13:13;19.83;;;5.67;;
42886;SDS011;29032;56.028;92.904;2024-02-16T23:18:15;7.23;;;4.10;;
42886;SDS011;29032;56.028;92.904;2024-02-16T23:23:19;11.73;;;3.87;;
42886;SDS011;29032;56.028;92.904;2024-02-16T23:28:21;9.33;;;4.37;;
42886;SDS011;29032;56.028;92.904;2024-02-16T23:33:23;9.43;;;4.43;;
42886;SDS011;29032;56.028;92.904;2024-02-16T23:38:26;11.53;;;4.03;;
42886;SDS011;29032;56.028;92.904;2024-02-16T23:43:29;12.27;;;3.93;;
42886;SDS011;29032;56.028;92.904;2024-02-16T23:48:31;13.07;;;4.67;;
42886;SDS011;29032;56.028;92.904;2024-02-16T23:53:34;8.70;;;3.57;;
42886;SDS011;29032;56.028;92.904;2024-02-16T23:58:37;9.33;;;4.90;;
